sensor_id;sensor_type;location;lat;lon;timestamp;P1;durP1;ratioP1;P2;durP2;ratioP2
76540;SDS011;65385;55.772;37.658;2023-02-28T00:00:19;7.10;;;4.07;;
76540;SDS011;65385;55.772;37.658;2023-02-28T00:01:20;9.45;;;5.20;;
76540;SDS011;65385;55.772;37.658;2023-02-28T00:02:21;10.52;;;5.95;;
76540;SDS011;65385;55.772;37.658;2023-02-28T00:03:22;11.38;;;5.60;;
76540;SDS011;65385;55.772;37.658;2023-02-28T00:04:22;7.70;;;4.47;;
76540;SDS011;65385;55.772;37.658;2023-02-28T00:05:23;9.95;;;5.90;;
76540;SDS011;65385;55.772;37.658;2023-02-28T00:06:25;9.13;;;4.43;;
76540;SDS011;65385;55.772;37.658;2023-02-28T00:07:27;7.43;;;5.20;;
76540;SDS011;65385;55.772;37.658;2023-02-28T00:08:28;7.13;;;4.30;;
76540;SDS011;65385;55.772;37.658;2023-02-28T00:09:29;5.15;;;3.58;;
76540;SDS011;65385;55.772;37.658;2023-02-28T00:10:30;11.63;;;5.35;;
76540;SDS011;65385;55.772;37.658;2023-02-28T00:11:31;7.35;;;4.82;;
76540;SDS011;65385;55.772;37.658;2023-02-28T00:12:32;12.00;;;5.53;;
76540;SDS011;65385;55.772;37.658;2023-02-28T00:13:33;13.95;;;6.20;;
76540;SDS011;65385;55.772;37.658;2023-02-28T00:14:37;6.28;;;4.15;;
76540;SDS011;65385;55.772;37.658;2023-02-28T00:15:37;11.68;;;6.43;;
76540;SDS011;65385;55.772;37.658;2023-02-28T00:16:38;7.85;;;3.90;;
76540;SDS011;65385;55.772;37.658;2023-02-28T00:17:38;13.27;;;5.93;;
76540;SDS011;65385;55.772;37.658;2023-02-28T00:18:39;9.38;;;4.63;;
76540;SDS011;65385;55.772;37.658;2023-02-28T00:19:40;13.60;;;5.88;;
76540;SDS011;65385;55.772;37.658;2023-02-28T00:20:40;12.48;;;6.13;;
76540;SDS011;65385;55.772;37.658;2023-02-28T00:21:41;10.48;;;5.28;;
76540;SDS011;65385;55.772;37.658;2023-02-28T00:22:44;11.30;;;6.13;;
76540;SDS011;65385;55.772;37.658;2023-02-28T00:23:46;7.38;;;4.82;;
76540;SDS011;65385;55.772;37.658;2023-02-28T00:24:47;9.68;;;5.70;;
76540;SDS011;65385;55.772;37.658;2023-02-28T00:25:47;12.32;;;5.85;;
76540;SDS011;65385;55.772;37.658;2023-02-28T00:26:48;10.45;;;6.18;;
76540;SDS011;65385;55.772;37.658;2023-02-28T00:27:48;15.43;;;7.45;;
76540;SDS011;65385;55.772;37.658;2023-02-28T00:28:49;13.15;;;6.03;;
76540;SDS011;65385;55.772;37.658;2023-02-28T00:29:52;8.55;;;5.53;;
76540;SDS011;65385;55.772;37.658;2023-02-28T00:30:54;12.40;;;4.55;;
76540;SDS011;65385;55.772;37.658;2023-02-28T00:31:54;11.73;;;5.75;;
76540;SDS011;65385;55.772;37.658;2023-02-28T00:32:55;9.32;;;4.95;;
76540;SDS011;65385;55.772;37.658;2023-02-28T00:33:55;10.25;;;5.60;;
76540;SDS011;65385;55.772;37.658;2023-02-28T00:34:56;11.77;;;5.32;;
76540;SDS011;65385;55.772;37.658;2023-02-28T00:36:03;8.77;;;5.80;;
76540;SDS011;65385;55.772;37.658;2023-02-28T00:37:05;13.10;;;6.18;;
76540;SDS011;65385;55.772;37.658;2023-02-28T00:38:07;10.45;;;6.15;;
76540;SDS011;65385;55.772;37.658;2023-02-28T00:39:08;12.35;;;6.28;;
76540;SDS011;65385;55.772;37.658;2023-02-28T00:40:09;11.68;;;5.55;;
76540;SDS011;65385;55.772;37.658;2023-02-28T00:41:12;9.23;;;5.07;;
76540;SDS011;65385;55.772;37.658;2023-02-28T00:42:14;13.52;;;8.77;;
76540;SDS011;65385;55.772;37.658;2023-02-28T00:43:14;7.20;;;4.65;;
76540;SDS011;65385;55.772;37.658;2023-02-28T00:44:15;13.27;;;6.95;;
76540;SDS011;65385;55.772;37.658;2023-02-28T00:45:15;12.38;;;6.55;;
76540;SDS011;65385;55.772;37.658;2023-02-28T00:46:16;11.18;;;6.93;;
76540;SDS011;65385;55.772;37.658;2023-02-28T00:47:16;8.48;;;4.70;;
76540;SDS011;65385;55.772;37.658;2023-02-28T00:48:17;10.85;;;5.53;;
76540;SDS011;65385;55.772;37.658;2023-02-28T00:49:17;10.38;;;6.00;;
76540;SDS011;65385;55.772;37.658;2023-02-28T00:50:18;11.80;;;6.20;;
76540;SDS011;65385;55.772;37.658;2023-02-28T00:51:20;9.88;;;6.45;;
76540;SDS011;65385;55.772;37.658;2023-02-28T00:52:20;9.27;;;5.25;;
76540;SDS011;65385;55.772;37.658;2023-02-28T00:53:21;8.00;;;5.93;;
76540;SDS011;65385;55.772;37.658;2023-02-28T00:54:22;6.38;;;3.97;;
76540;SDS011;65385;55.772;37.658;2023-02-28T00:55:23;8.88;;;5.78;;
76540;SDS011;65385;55.772;37.658;2023-02-28T00:56:24;10.13;;;6.30;;
76540;SDS011;65385;55.772;37.658;2023-02-28T00:57:24;15.07;;;7.28;;
76540;SDS011;65385;55.772;37.658;2023-02-28T00:58:25;7.85;;;5.35;;
76540;SDS011;65385;55.772;37.658;2023-02-28T00:59:26;6.47;;;5.07;;
76540;SDS011;65385;55.772;37.658;2023-02-28T01:00:27;13.43;;;6.57;;
76540;SDS011;65385;55.772;37.658;2023-02-28T01:01:27;9.38;;;5.45;;
76540;SDS011;65385;55.772;37.658;2023-02-28T01:02:28;11.95;;;6.25;;
76540;SDS011;65385;55.772;37.658;2023-02-28T01:03:28;9.38;;;5.95;;
76540;SDS011;65385;55.772;37.658;2023-02-28T01:04:29;12.15;;;5.50;;
76540;SDS011;65385;55.772;37.658;2023-02-28T01:05:29;5.97;;;3.85;;
76540;SDS011;65385;55.772;37.658;2023-02-28T01:06:30;8.75;;;4.35;;
76540;SDS011;65385;55.772;37.658;2023-02-28T01:07:31;11.32;;;6.25;;
76540;SDS011;65385;55.772;37.658;2023-02-28T01:08:32;9.80;;;5.10;;
76540;SDS011;65385;55.772;37.658;2023-02-28T01:09:32;11.23;;;6.72;;
76540;SDS011;65385;55.772;37.658;2023-02-28T01:10:33;6.05;;;4.15;;
76540;SDS011;65385;55.772;37.658;2023-02-28T01:11:34;6.68;;;4.30;;
76540;SDS011;65385;55.772;37.658;2023-02-28T01:12:35;12.27;;;6.90;;
76540;SDS011;65385;55.772;37.658;2023-02-28T01:13:35;11.05;;;5.10;;
76540;SDS011;65385;55.772;37.658;2023-02-28T01:14:36;8.00;;;4.85;;
76540;SDS011;65385;55.772;37.658;2023-02-28T01:15:38;9.30;;;4.40;;
76540;SDS011;65385;55.772;37.658;2023-02-28T01:16:41;8.95;;;5.35;;
76540;SDS011;65385;55.772;37.658;2023-02-28T01:17:43;10.25;;;5.72;;
76540;SDS011;65385;55.772;37.658;2023-02-28T01:18:43;4.68;;;4.00;;
76540;SDS011;65385;55.772;37.658;2023-02-28T01:19:44;6.80;;;4.75;;
76540;SDS011;65385;55.772;37.658;2023-02-28T01:20:45;11.32;;;6.03;;
76540;SDS011;65385;55.772;37.658;2023-02-28T01:21:46;9.43;;;5.30;;
76540;SDS011;65385;55.772;37.658;2023-02-28T01:22:47;11.27;;;5.35;;
76540;SDS011;65385;55.772;37.658;2023-02-28T01:23:47;4.80;;;4.28;;
76540;SDS011;65385;55.772;37.658;2023-02-28T01:24:49;10.73;;;5.85;;
76540;SDS011;65385;55.772;37.658;2023-02-28T01:25:50;8.73;;;5.18;;
76540;SDS011;65385;55.772;37.658;2023-02-28T01:26:51;10.95;;;6.10;;
76540;SDS011;65385;55.772;37.658;2023-02-28T01:27:51;10.60;;;5.75;;
76540;SDS011;65385;55.772;37.658;2023-02-28T01:28:53;14.30;;;5.40;;
76540;SDS011;65385;55.772;37.658;2023-02-28T01:29:53;9.32;;;4.47;;
76540;SDS011;65385;55.772;37.658;2023-02-28T01:30:54;12.45;;;6.43;;
76540;SDS011;65385;55.772;37.658;2023-02-28T01:31:54;10.30;;;6.82;;
76540;SDS011;65385;55.772;37.658;2023-02-28T01:32:55;12.38;;;5.07;;
76540;SDS011;65385;55.772;37.658;2023-02-28T01:33:56;13.07;;;6.00;;
76540;SDS011;65385;55.772;37.658;2023-02-28T01:34:56;13.38;;;6.57;;
76540;SDS011;65385;55.772;37.658;2023-02-28T01:35:58;12.80;;;5.43;;
76540;SDS011;65385;55.772;37.658;2023-02-28T01:37:03;10.70;;;6.03;;
76540;SDS011;65385;55.772;37.658;2023-02-28T01:38:04;10.48;;;5.57;;
76540;SDS011;65385;55.772;37.658;2023-02-28T01:39:04;10.75;;;4.72;;
76540;SDS011;65385;55.772;37.658;2023-02-28T01:40:05;13.07;;;6.72;;
76540;SDS011;65385;55.772;37.658;2023-02-28T01:41:07;10.40;;;5.63;;
76540;SDS011;65385;55.772;37.658;2023-02-28T01:42:08;10.98;;;5.88;;
76540;SDS011;65385;55.772;37.658;2023-02-28T01:43:19;14.30;;;6.95;;
76540;SDS011;65385;55.772;37.658;2023-02-28T01:46:06;6.45;;;3.75;;
76540;SDS011;65385;55.772;37.658;2023-02-28T01:47:07;11.23;;;6.25;;
76540;SDS011;65385;55.772;37.658;2023-02-28T01:48:07;11.40;;;6.53;;
76540;SDS011;65385;55.772;37.658;2023-02-28T01:49:11;10.68;;;6.75;;
76540;SDS011;65385;55.772;37.658;2023-02-28T01:50:16;6.85;;;4.85;;
76540;SDS011;65385;55.772;37.658;2023-02-28T01:51:26;10.57;;;6.43;;
76540;SDS011;65385;55.772;37.658;2023-02-28T01:52:29;7.22;;;4.85;;
76540;SDS011;65385;55.772;37.658;2023-02-28T01:53:33;9.32;;;5.50;;
76540;SDS011;65385;55.772;37.658;2023-02-28T01:54:37;11.20;;;6.35;;
76540;SDS011;65385;55.772;37.658;2023-02-28T01:55:38;10.60;;;6.15;;
76540;SDS011;65385;55.772;37.658;2023-02-28T01:56:44;9.95;;;5.68;;
76540;SDS011;65385;55.772;37.658;2023-02-28T01:57:58;10.02;;;5.10;;
76540;SDS011;65385;55.772;37.658;2023-02-28T01:59:02;11.00;;;6.32;;
76540;SDS011;65385;55.772;37.658;2023-02-28T02:00:07;8.63;;;5.00;;
76540;SDS011;65385;55.772;37.658;2023-02-28T02:01:13;12.98;;;5.80;;
76540;SDS011;65385;55.772;37.658;2023-02-28T02:02:21;10.38;;;6.35;;
76540;SDS011;65385;55.772;37.658;2023-02-28T02:03:24;7.32;;;4.88;;
76540;SDS011;65385;55.772;37.658;2023-02-28T02:04:26;8.63;;;4.95;;
76540;SDS011;65385;55.772;37.658;2023-02-28T02:05:32;11.02;;;5.63;;
76540;SDS011;65385;55.772;37.658;2023-02-28T02:06:36;9.82;;;5.93;;
76540;SDS011;65385;55.772;37.658;2023-02-28T02:07:45;6.28;;;4.22;;
76540;SDS011;65385;55.772;37.658;2023-02-28T02:08:48;10.10;;;4.70;;
76540;SDS011;65385;55.772;37.658;2023-02-28T02:09:48;10.95;;;5.15;;
76540;SDS011;65385;55.772;37.658;2023-02-28T02:10:50;9.05;;;5.47;;
76540;SDS011;65385;55.772;37.658;2023-02-28T02:11:58;7.72;;;4.32;;
76540;SDS011;65385;55.772;37.658;2023-02-28T02:17:26;8.10;;;5.13;;
76540;SDS011;65385;55.772;37.658;2023-02-28T02:18:42;8.85;;;4.80;;
76540;SDS011;65385;55.772;37.658;2023-02-28T02:24:07;11.07;;;6.63;;
76540;SDS011;65385;55.772;37.658;2023-02-28T02:29:42;13.85;;;6.43;;
76540;SDS011;65385;55.772;37.658;2023-02-28T02:32:26;12.63;;;4.43;;
76540;SDS011;65385;55.772;37.658;2023-02-28T02:35:31;8.93;;;5.10;;
76540;SDS011;65385;55.772;37.658;2023-02-28T02:40:53;5.00;;;2.97;;
76540;SDS011;65385;55.772;37.658;2023-02-28T02:42:01;8.80;;;4.38;;
76540;SDS011;65385;55.772;37.658;2023-02-28T02:43:08;13.40;;;6.13;;
76540;SDS011;65385;55.772;37.658;2023-02-28T02:44:42;9.15;;;5.82;;
76540;SDS011;65385;55.772;37.658;2023-02-28T02:45:50;9.02;;;4.82;;
76540;SDS011;65385;55.772;37.658;2023-02-28T02:46:59;15.80;;;7.32;;
76540;SDS011;65385;55.772;37.658;2023-02-28T02:48:13;12.10;;;6.47;;
76540;SDS011;65385;55.772;37.658;2023-02-28T02:49:36;9.70;;;4.90;;
76540;SDS011;65385;55.772;37.658;2023-02-28T02:50:39;13.30;;;6.80;;
76540;SDS011;65385;55.772;37.658;2023-02-28T02:51:44;13.07;;;5.38;;
76540;SDS011;65385;55.772;37.658;2023-02-28T02:52:49;11.02;;;6.47;;
76540;SDS011;65385;55.772;37.658;2023-02-28T02:54:05;12.50;;;6.88;;
76540;SDS011;65385;55.772;37.658;2023-02-28T02:55:11;14.93;;;8.15;;
76540;SDS011;65385;55.772;37.658;2023-02-28T02:56:15;14.25;;;6.65;;
76540;SDS011;65385;55.772;37.658;2023-02-28T02:57:22;15.40;;;6.40;;
76540;SDS011;65385;55.772;37.658;2023-02-28T02:58:26;15.18;;;7.93;;
76540;SDS011;65385;55.772;37.658;2023-02-28T02:59:31;10.75;;;6.35;;
76540;SDS011;65385;55.772;37.658;2023-02-28T03:00:41;15.90;;;6.53;;
76540;SDS011;65385;55.772;37.658;2023-02-28T03:01:45;16.25;;;8.15;;
76540;SDS011;65385;55.772;37.658;2023-02-28T03:02:45;14.20;;;6.30;;
76540;SDS011;65385;55.772;37.658;2023-02-28T03:03:48;13.00;;;7.45;;
76540;SDS011;65385;55.772;37.658;2023-02-28T03:04:53;10.65;;;6.55;;
76540;SDS011;65385;55.772;37.658;2023-02-28T03:06:01;10.55;;;6.18;;
76540;SDS011;65385;55.772;37.658;2023-02-28T03:07:04;10.02;;;5.85;;
76540;SDS011;65385;55.772;37.658;2023-02-28T03:08:04;8.77;;;5.50;;
76540;SDS011;65385;55.772;37.658;2023-02-28T03:09:05;13.13;;;7.03;;
76540;SDS011;65385;55.772;37.658;2023-02-28T03:11:30;14.40;;;7.03;;
76540;SDS011;65385;55.772;37.658;2023-02-28T03:12:40;9.75;;;4.47;;
76540;SDS011;65385;55.772;37.658;2023-02-28T03:15:28;14.10;;;5.78;;
76540;SDS011;65385;55.772;37.658;2023-02-28T03:18:02;13.25;;;7.25;;
76540;SDS011;65385;55.772;37.658;2023-02-28T03:19:19;16.33;;;7.57;;
76540;SDS011;65385;55.772;37.658;2023-02-28T03:20:40;9.55;;;6.15;;
76540;SDS011;65385;55.772;37.658;2023-02-28T03:22:02;13.93;;;7.43;;
76540;SDS011;65385;55.772;37.658;2023-02-28T03:23:14;8.40;;;6.68;;
76540;SDS011;65385;55.772;37.658;2023-02-28T03:25:27;15.48;;;7.70;;
76540;SDS011;65385;55.772;37.658;2023-02-28T03:26:34;13.18;;;6.93;;
76540;SDS011;65385;55.772;37.658;2023-02-28T03:30:45;13.32;;;6.25;;
76540;SDS011;65385;55.772;37.658;2023-02-28T03:31:55;9.88;;;6.85;;
76540;SDS011;65385;55.772;37.658;2023-02-28T03:35:26;10.75;;;6.65;;
76540;SDS011;65385;55.772;37.658;2023-02-28T03:36:36;15.60;;;6.20;;
76540;SDS011;65385;55.772;37.658;2023-02-28T03:37:44;13.02;;;7.43;;
76540;SDS011;65385;55.772;37.658;2023-02-28T03:38:48;12.45;;;6.80;;
76540;SDS011;65385;55.772;37.658;2023-02-28T03:39:54;14.35;;;7.97;;
76540;SDS011;65385;55.772;37.658;2023-02-28T03:41:06;13.65;;;6.55;;
76540;SDS011;65385;55.772;37.658;2023-02-28T03:42:23;8.60;;;5.28;;
76540;SDS011;65385;55.772;37.658;2023-02-28T03:43:29;11.73;;;6.15;;
76540;SDS011;65385;55.772;37.658;2023-02-28T03:44:39;5.65;;;3.70;;
76540;SDS011;65385;55.772;37.658;2023-02-28T03:45:43;6.55;;;5.05;;
76540;SDS011;65385;55.772;37.658;2023-02-28T03:46:50;6.60;;;4.72;;
76540;SDS011;65385;55.772;37.658;2023-02-28T03:48:01;7.07;;;5.35;;
76540;SDS011;65385;55.772;37.658;2023-02-28T03:49:10;8.50;;;4.88;;
76540;SDS011;65385;55.772;37.658;2023-02-28T03:50:20;7.78;;;5.28;;
76540;SDS011;65385;55.772;37.658;2023-02-28T03:51:22;7.65;;;4.10;;
76540;SDS011;65385;55.772;37.658;2023-02-28T03:52:25;12.40;;;6.10;;
76540;SDS011;65385;55.772;37.658;2023-02-28T03:53:33;11.85;;;5.93;;
76540;SDS011;65385;55.772;37.658;2023-02-28T03:54:46;11.45;;;6.72;;
76540;SDS011;65385;55.772;37.658;2023-02-28T03:56:02;10.57;;;6.18;;
76540;SDS011;65385;55.772;37.658;2023-02-28T03:57:13;10.82;;;5.80;;
76540;SDS011;65385;55.772;37.658;2023-02-28T03:58:35;9.25;;;6.00;;
76540;SDS011;65385;55.772;37.658;2023-02-28T03:59:48;11.88;;;6.25;;
76540;SDS011;65385;55.772;37.658;2023-02-28T04:01:03;9.60;;;5.70;;
76540;SDS011;65385;55.772;37.658;2023-02-28T04:02:27;13.38;;;6.10;;
76540;SDS011;65385;55.772;37.658;2023-02-28T04:03:28;12.05;;;6.03;;
76540;SDS011;65385;55.772;37.658;2023-02-28T04:04:28;3.80;;;2.90;;
76540;SDS011;65385;55.772;37.658;2023-02-28T04:05:29;11.18;;;6.20;;
76540;SDS011;65385;55.772;37.658;2023-02-28T04:06:31;11.07;;;5.97;;
76540;SDS011;65385;55.772;37.658;2023-02-28T04:07:33;6.15;;;4.75;;
76540;SDS011;65385;55.772;37.658;2023-02-28T04:08:34;10.95;;;5.28;;
76540;SDS011;65385;55.772;37.658;2023-02-28T04:09:34;14.32;;;6.65;;
76540;SDS011;65385;55.772;37.658;2023-02-28T04:10:35;9.68;;;5.95;;
76540;SDS011;65385;55.772;37.658;2023-02-28T04:11:37;10.50;;;5.93;;
76540;SDS011;65385;55.772;37.658;2023-02-28T04:12:40;8.18;;;5.20;;
76540;SDS011;65385;55.772;37.658;2023-02-28T04:13:41;14.90;;;6.45;;
76540;SDS011;65385;55.772;37.658;2023-02-28T04:14:41;10.75;;;5.47;;
76540;SDS011;65385;55.772;37.658;2023-02-28T04:15:42;10.60;;;6.05;;
76540;SDS011;65385;55.772;37.658;2023-02-28T04:16:42;8.07;;;5.28;;
76540;SDS011;65385;55.772;37.658;2023-02-28T04:17:43;8.18;;;4.97;;
76540;SDS011;65385;55.772;37.658;2023-02-28T04:18:43;9.55;;;5.82;;
76540;SDS011;65385;55.772;37.658;2023-02-28T04:19:44;7.90;;;4.60;;
76540;SDS011;65385;55.772;37.658;2023-02-28T04:20:44;10.63;;;5.55;;
76540;SDS011;65385;55.772;37.658;2023-02-28T04:21:46;5.20;;;3.78;;
76540;SDS011;65385;55.772;37.658;2023-02-28T04:22:48;7.68;;;5.22;;
76540;SDS011;65385;55.772;37.658;2023-02-28T04:23:49;7.03;;;4.20;;
76540;SDS011;65385;55.772;37.658;2023-02-28T04:24:49;7.50;;;4.70;;
76540;SDS011;65385;55.772;37.658;2023-02-28T04:25:50;9.45;;;4.70;;
76540;SDS011;65385;55.772;37.658;2023-02-28T04:26:52;9.65;;;4.75;;
76540;SDS011;65385;55.772;37.658;2023-02-28T04:27:55;6.43;;;4.15;;
76540;SDS011;65385;55.772;37.658;2023-02-28T04:28:55;8.20;;;5.70;;
76540;SDS011;65385;55.772;37.658;2023-02-28T04:29:56;7.57;;;4.15;;
76540;SDS011;65385;55.772;37.658;2023-02-28T04:30:57;8.50;;;4.10;;
76540;SDS011;65385;55.772;37.658;2023-02-28T04:31:59;10.32;;;5.80;;
76540;SDS011;65385;55.772;37.658;2023-02-28T04:33:01;9.77;;;4.60;;
76540;SDS011;65385;55.772;37.658;2023-02-28T04:34:02;9.55;;;5.18;;
76540;SDS011;65385;55.772;37.658;2023-02-28T04:35:03;6.80;;;4.07;;
76540;SDS011;65385;55.772;37.658;2023-02-28T04:36:05;7.93;;;4.70;;
76540;SDS011;65385;55.772;37.658;2023-02-28T04:37:07;9.30;;;4.55;;
76540;SDS011;65385;55.772;37.658;2023-02-28T04:38:08;8.68;;;4.53;;
76540;SDS011;65385;55.772;37.658;2023-02-28T04:39:08;10.68;;;5.63;;
76540;SDS011;65385;55.772;37.658;2023-02-28T04:40:10;8.05;;;4.95;;
76540;SDS011;65385;55.772;37.658;2023-02-28T04:41:12;6.20;;;4.53;;
76540;SDS011;65385;55.772;37.658;2023-02-28T04:42:13;5.45;;;3.78;;
76540;SDS011;65385;55.772;37.658;2023-02-28T04:43:14;3.13;;;2.83;;
76540;SDS011;65385;55.772;37.658;2023-02-28T04:44:15;9.43;;;4.15;;
76540;SDS011;65385;55.772;37.658;2023-02-28T04:45:16;8.07;;;4.50;;
76540;SDS011;65385;55.772;37.658;2023-02-28T04:46:17;7.57;;;4.18;;
76540;SDS011;65385;55.772;37.658;2023-02-28T04:47:18;5.22;;;3.92;;
76540;SDS011;65385;55.772;37.658;2023-02-28T04:48:19;7.90;;;4.45;;
76540;SDS011;65385;55.772;37.658;2023-02-28T04:49:19;6.28;;;4.30;;
76540;SDS011;65385;55.772;37.658;2023-02-28T04:50:20;6.35;;;4.47;;
76540;SDS011;65385;55.772;37.658;2023-02-28T04:51:20;4.65;;;2.60;;
76540;SDS011;65385;55.772;37.658;2023-02-28T04:52:21;7.78;;;4.15;;
76540;SDS011;65385;55.772;37.658;2023-02-28T04:53:21;8.45;;;4.78;;
76540;SDS011;65385;55.772;37.658;2023-02-28T04:54:22;5.88;;;4.15;;
76540;SDS011;65385;55.772;37.658;2023-02-28T04:55:22;5.72;;;4.50;;
76540;SDS011;65385;55.772;37.658;2023-02-28T04:56:23;5.30;;;4.13;;
76540;SDS011;65385;55.772;37.658;2023-02-28T04:57:23;6.63;;;3.70;;
76540;SDS011;65385;55.772;37.658;2023-02-28T04:58:24;5.75;;;3.10;;
76540;SDS011;65385;55.772;37.658;2023-02-28T04:59:25;7.22;;;4.03;;
76540;SDS011;65385;55.772;37.658;2023-02-28T05:00:25;7.70;;;4.70;;
76540;SDS011;65385;55.772;37.658;2023-02-28T05:01:32;7.65;;;4.00;;
76540;SDS011;65385;55.772;37.658;2023-02-28T05:02:34;4.30;;;3.75;;
76540;SDS011;65385;55.772;37.658;2023-02-28T05:03:35;9.00;;;4.28;;
76540;SDS011;65385;55.772;37.658;2023-02-28T05:04:36;8.40;;;4.40;;
76540;SDS011;65385;55.772;37.658;2023-02-28T05:05:37;7.90;;;4.93;;
76540;SDS011;65385;55.772;37.658;2023-02-28T05:06:37;5.22;;;3.58;;
76540;SDS011;65385;55.772;37.658;2023-02-28T05:07:38;6.75;;;4.10;;
76540;SDS011;65385;55.772;37.658;2023-02-28T05:08:38;5.20;;;3.60;;
76540;SDS011;65385;55.772;37.658;2023-02-28T05:09:39;5.32;;;4.15;;
76540;SDS011;65385;55.772;37.658;2023-02-28T05:10:40;8.55;;;4.40;;
76540;SDS011;65385;55.772;37.658;2023-02-28T05:11:41;6.93;;;4.57;;
76540;SDS011;65385;55.772;37.658;2023-02-28T05:12:41;7.05;;;3.95;;
76540;SDS011;65385;55.772;37.658;2023-02-28T05:13:42;7.25;;;4.68;;
76540;SDS011;65385;55.772;37.658;2023-02-28T05:14:42;7.20;;;4.47;;
76540;SDS011;65385;55.772;37.658;2023-02-28T05:15:44;9.32;;;4.35;;
76540;SDS011;65385;55.772;37.658;2023-02-28T05:16:44;6.45;;;3.35;;
76540;SDS011;65385;55.772;37.658;2023-02-28T05:17:45;6.38;;;3.95;;
76540;SDS011;65385;55.772;37.658;2023-02-28T05:18:45;6.55;;;3.78;;
76540;SDS011;65385;55.772;37.658;2023-02-28T05:19:46;5.95;;;4.00;;
76540;SDS011;65385;55.772;37.658;2023-02-28T05:20:47;3.88;;;3.10;;
76540;SDS011;65385;55.772;37.658;2023-02-28T05:21:49;5.88;;;4.40;;
76540;SDS011;65385;55.772;37.658;2023-02-28T05:22:51;6.47;;;3.50;;
76540;SDS011;65385;55.772;37.658;2023-02-28T05:23:53;5.45;;;3.63;;
76540;SDS011;65385;55.772;37.658;2023-02-28T05:24:54;6.10;;;3.85;;
76540;SDS011;65385;55.772;37.658;2023-02-28T05:25:54;5.47;;;3.38;;
76540;SDS011;65385;55.772;37.658;2023-02-28T05:26:55;7.43;;;3.85;;
76540;SDS011;65385;55.772;37.658;2023-02-28T05:27:56;5.90;;;4.05;;
76540;SDS011;65385;55.772;37.658;2023-02-28T05:28:56;7.18;;;3.60;;
76540;SDS011;65385;55.772;37.658;2023-02-28T05:29:57;5.43;;;3.80;;
76540;SDS011;65385;55.772;37.658;2023-02-28T05:30:59;5.13;;;3.50;;
76540;SDS011;65385;55.772;37.658;2023-02-28T05:31:59;7.25;;;3.97;;
76540;SDS011;65385;55.772;37.658;2023-02-28T05:33:00;5.75;;;3.35;;
76540;SDS011;65385;55.772;37.658;2023-02-28T05:34:00;6.35;;;3.70;;
76540;SDS011;65385;55.772;37.658;2023-02-28T05:35:01;6.70;;;3.75;;
76540;SDS011;65385;55.772;37.658;2023-02-28T05:36:03;6.93;;;4.15;;
76540;SDS011;65385;55.772;37.658;2023-02-28T05:37:05;7.85;;;4.13;;
76540;SDS011;65385;55.772;37.658;2023-02-28T05:38:07;5.55;;;3.70;;
76540;SDS011;65385;55.772;37.658;2023-02-28T05:39:07;7.53;;;4.03;;
76540;SDS011;65385;55.772;37.658;2023-02-28T05:41:13;8.85;;;4.00;;
76540;SDS011;65385;55.772;37.658;2023-02-28T05:42:14;7.85;;;4.15;;
76540;SDS011;65385;55.772;37.658;2023-02-28T05:43:14;7.28;;;3.95;;
76540;SDS011;65385;55.772;37.658;2023-02-28T05:44:15;6.32;;;3.55;;
76540;SDS011;65385;55.772;37.658;2023-02-28T05:45:16;3.03;;;2.47;;
76540;SDS011;65385;55.772;37.658;2023-02-28T05:46:17;5.82;;;4.30;;
76540;SDS011;65385;55.772;37.658;2023-02-28T05:47:17;6.50;;;3.40;;
76540;SDS011;65385;55.772;37.658;2023-02-28T05:48:18;5.85;;;3.63;;
76540;SDS011;65385;55.772;37.658;2023-02-28T05:49:18;7.22;;;3.90;;
76540;SDS011;65385;55.772;37.658;2023-02-28T05:50:19;5.95;;;3.40;;
76540;SDS011;65385;55.772;37.658;2023-02-28T05:51:20;6.72;;;3.40;;
76540;SDS011;65385;55.772;37.658;2023-02-28T05:52:20;7.05;;;3.47;;
76540;SDS011;65385;55.772;37.658;2023-02-28T05:53:21;6.15;;;4.10;;
76540;SDS011;65385;55.772;37.658;2023-02-28T05:54:22;6.28;;;3.80;;
76540;SDS011;65385;55.772;37.658;2023-02-28T05:55:22;6.05;;;3.45;;
76540;SDS011;65385;55.772;37.658;2023-02-28T05:56:23;5.88;;;3.53;;
76540;SDS011;65385;55.772;37.658;2023-02-28T05:57:23;6.35;;;3.92;;
76540;SDS011;65385;55.772;37.658;2023-02-28T05:58:24;7.13;;;3.70;;
76540;SDS011;65385;55.772;37.658;2023-02-28T05:59:29;8.75;;;3.63;;
76540;SDS011;65385;55.772;37.658;2023-02-28T06:00:30;6.45;;;3.33;;
76540;SDS011;65385;55.772;37.658;2023-02-28T06:01:32;9.50;;;3.80;;
76540;SDS011;65385;55.772;37.658;2023-02-28T06:02:34;7.43;;;3.85;;
76540;SDS011;65385;55.772;37.658;2023-02-28T06:03:34;5.13;;;3.78;;
76540;SDS011;65385;55.772;37.658;2023-02-28T06:04:35;7.68;;;3.50;;
76540;SDS011;65385;55.772;37.658;2023-02-28T06:05:35;7.10;;;3.58;;
76540;SDS011;65385;55.772;37.658;2023-02-28T06:06:36;5.75;;;3.30;;
76540;SDS011;65385;55.772;37.658;2023-02-28T06:07:37;5.82;;;3.03;;
76540;SDS011;65385;55.772;37.658;2023-02-28T06:08:37;9.52;;;4.38;;
76540;SDS011;65385;55.772;37.658;2023-02-28T06:09:38;9.23;;;4.15;;
76540;SDS011;65385;55.772;37.658;2023-02-28T06:10:38;7.15;;;3.58;;
76540;SDS011;65385;55.772;37.658;2023-02-28T06:11:39;6.70;;;3.97;;
76540;SDS011;65385;55.772;37.658;2023-02-28T06:12:40;5.55;;;2.85;;
76540;SDS011;65385;55.772;37.658;2023-02-28T06:13:43;5.10;;;3.60;;
76540;SDS011;65385;55.772;37.658;2023-02-28T06:14:44;4.78;;;3.53;;
76540;SDS011;65385;55.772;37.658;2023-02-28T06:15:45;6.25;;;3.90;;
76540;SDS011;65385;55.772;37.658;2023-02-28T06:16:46;7.40;;;4.10;;
76540;SDS011;65385;55.772;37.658;2023-02-28T06:17:47;7.10;;;3.63;;
76540;SDS011;65385;55.772;37.658;2023-02-28T06:18:48;6.63;;;3.90;;
76540;SDS011;65385;55.772;37.658;2023-02-28T06:19:48;5.90;;;3.50;;
76540;SDS011;65385;55.772;37.658;2023-02-28T06:20:54;6.45;;;2.92;;
76540;SDS011;65385;55.772;37.658;2023-02-28T06:21:55;5.75;;;2.92;;
76540;SDS011;65385;55.772;37.658;2023-02-28T06:22:57;6.57;;;4.03;;
76540;SDS011;65385;55.772;37.658;2023-02-28T06:24:03;8.98;;;3.35;;
76540;SDS011;65385;55.772;37.658;2023-02-28T06:25:04;9.32;;;3.70;;
76540;SDS011;65385;55.772;37.658;2023-02-28T06:26:06;4.88;;;3.00;;
76540;SDS011;65385;55.772;37.658;2023-02-28T06:27:06;3.47;;;3.10;;
76540;SDS011;65385;55.772;37.658;2023-02-28T06:28:07;4.13;;;3.28;;
76540;SDS011;65385;55.772;37.658;2023-02-28T06:29:08;5.80;;;3.40;;
76540;SDS011;65385;55.772;37.658;2023-02-28T06:30:09;5.25;;;3.17;;
76540;SDS011;65385;55.772;37.658;2023-02-28T06:31:15;5.40;;;2.92;;
76540;SDS011;65385;55.772;37.658;2023-02-28T06:32:17;7.95;;;3.85;;
76540;SDS011;65385;55.772;37.658;2023-02-28T06:33:18;7.80;;;4.28;;
76540;SDS011;65385;55.772;37.658;2023-02-28T06:34:18;4.05;;;2.50;;
76540;SDS011;65385;55.772;37.658;2023-02-28T06:35:19;5.90;;;3.28;;
76540;SDS011;65385;55.772;37.658;2023-02-28T06:36:20;8.45;;;3.78;;
76540;SDS011;65385;55.772;37.658;2023-02-28T06:37:21;5.68;;;3.13;;
76540;SDS011;65385;55.772;37.658;2023-02-28T06:38:21;7.85;;;4.38;;
76540;SDS011;65385;55.772;37.658;2023-02-28T06:39:22;7.95;;;3.65;;
76540;SDS011;65385;55.772;37.658;2023-02-28T06:40:22;5.80;;;3.70;;
76540;SDS011;65385;55.772;37.658;2023-02-28T06:41:23;7.90;;;3.78;;
76540;SDS011;65385;55.772;37.658;2023-02-28T06:42:25;6.05;;;3.83;;
76540;SDS011;65385;55.772;37.658;2023-02-28T06:43:29;5.93;;;3.58;;
76540;SDS011;65385;55.772;37.658;2023-02-28T06:44:31;7.43;;;4.13;;
76540;SDS011;65385;55.772;37.658;2023-02-28T06:45:35;7.45;;;4.38;;
76540;SDS011;65385;55.772;37.658;2023-02-28T06:46:35;6.95;;;3.72;;